sensor_id;sensor_type;location;lat;lon;timestamp;temperature;humidity
6270;DHT22;3168;51.684;6.954;2023-11-19T00:02:18;10.30;99.90
6270;DHT22;3168;51.684;6.954;2023-11-19T00:04:44;10.40;99.90
6270;DHT22;3168;51.684;6.954;2023-11-19T00:07:10;10.40;99.90
6270;DHT22;3168;51.684;6.954;2023-11-19T00:09:36;10.40;99.90
6270;DHT22;3168;51.684;6.954;2023-11-19T00:12:04;10.40;99.90
6270;DHT22;3168;51.684;6.954;2023-11-19T00:14:31;10.50;99.90
6270;DHT22;3168;51.684;6.954;2023-11-19T00:16:57;10.50;99.90
6270;DHT22;3168;51.684;6.954;2023-11-19T00:19:23;10.60;99.90
6270;DHT22;3168;51.684;6.954;2023-11-19T00:21:49;10.50;99.90
6270;DHT22;3168;51.684;6.954;2023-11-19T00:24:15;10.50;99.90
6270;DHT22;3168;51.684;6.954;2023-11-19T00:26:42;10.50;99.90
6270;DHT22;3168;51.684;6.954;2023-11-19T00:29:08;10.60;99.90
6270;DHT22;3168;51.684;6.954;2023-11-19T00:31:34;10.60;99.90
6270;DHT22;3168;51.684;6.954;2023-11-19T00:34:00;10.60;99.90
6270;DHT22;3168;51.684;6.954;2023-11-19T00:36:26;10.60;99.90
6270;DHT22;3168;51.684;6.954;2023-11-19T00:38:53;10.60;99.90
6270;DHT22;3168;51.684;6.954;2023-11-19T00:41:19;10.60;99.90
6270;DHT22;3168;51.684;6.954;2023-11-19T00:43:45;10.60;99.90
6270;DHT22;3168;51.684;6.954;2023-11-19T00:46:11;10.70;99.90
6270;DHT22;3168;51.684;6.954;2023-11-19T00:48:37;10.70;99.90
6270;DHT22;3168;51.684;6.954;2023-11-19T00:51:03;10.70;99.90
6270;DHT22;3168;51.684;6.954;2023-11-19T00:53:30;10.70;99.90
6270;DHT22;3168;51.684;6.954;2023-11-19T00:55:56;10.80;99.90
6270;DHT22;3168;51.684;6.954;2023-11-19T00:58:22;10.80;99.90
6270;DHT22;3168;51.684;6.954;2023-11-19T01:00:48;11.00;99.90
6270;DHT22;3168;51.684;6.954;2023-11-19T01:03:14;11.00;99.90
6270;DHT22;3168;51.684;6.954;2023-11-19T01:05:41;11.10;99.90
6270;DHT22;3168;51.684;6.954;2023-11-19T01:08:08;11.30;99.90
6270;DHT22;3168;51.684;6.954;2023-11-19T01:10:36;11.20;99.90
6270;DHT22;3168;51.684;6.954;2023-11-19T01:13:00;11.40;99.90
6270;DHT22;3168;51.684;6.954;2023-11-19T01:15:26;11.40;99.90
6270;DHT22;3168;51.684;6.954;2023-11-19T01:17:52;11.50;99.90
6270;DHT22;3168;51.684;6.954;2023-11-19T01:20:18;11.40;99.90
6270;DHT22;3168;51.684;6.954;2023-11-19T01:22:44;11.50;99.90
6270;DHT22;3168;51.684;6.954;2023-11-19T01:25:10;11.50;99.90
6270;DHT22;3168;51.684;6.954;2023-11-19T01:27:36;11.70;99.90
6270;DHT22;3168;51.684;6.954;2023-11-19T01:30:02;11.70;99.90
6270;DHT22;3168;51.684;6.954;2023-11-19T01:32:29;11.90;99.90
6270;DHT22;3168;51.684;6.954;2023-11-19T01:34:55;11.90;99.90
6270;DHT22;3168;51.684;6.954;2023-11-19T01:37:21;11.80;99.90
6270;DHT22;3168;51.684;6.954;2023-11-19T01:39:47;11.90;99.90
6270;DHT22;3168;51.684;6.954;2023-11-19T01:42:14;11.90;99.90
6270;DHT22;3168;51.684;6.954;2023-11-19T01:44:40;11.90;99.90
6270;DHT22;3168;51.684;6.954;2023-11-19T01:47:06;12.00;99.90
6270;DHT22;3168;51.684;6.954;2023-11-19T01:49:32;12.00;99.90
6270;DHT22;3168;51.684;6.954;2023-11-19T01:51:58;12.00;99.90
6270;DHT22;3168;51.684;6.954;2023-11-19T01:54:24;12.00;99.90
6270;DHT22;3168;51.684;6.954;2023-11-19T01:56:50;12.10;99.90
6270;DHT22;3168;51.684;6.954;2023-11-19T01:59:15;12.00;99.90
6270;DHT22;3168;51.684;6.954;2023-11-19T02:01:41;12.10;99.90
6270;DHT22;3168;51.684;6.954;2023-11-19T02:04:08;12.10;99.90
6270;DHT22;3168;51.684;6.954;2023-11-19T02:06:34;12.10;99.90
6270;DHT22;3168;51.684;6.954;2023-11-19T02:08:59;12.20;99.90
6270;DHT22;3168;51.684;6.954;2023-11-19T02:11:26;12.10;99.90
6270;DHT22;3168;51.684;6.954;2023-11-19T02:13:52;12.10;99.90
6270;DHT22;3168;51.684;6.954;2023-11-19T02:16:18;12.10;99.90
6270;DHT22;3168;51.684;6.954;2023-11-19T02:18:43;12.20;99.90
6270;DHT22;3168;51.684;6.954;2023-11-19T02:21:10;12.20;99.90
6270;DHT22;3168;51.684;6.954;2023-11-19T02:23:36;12.20;99.90
6270;DHT22;3168;51.684;6.954;2023-11-19T02:28:59;12.30;99.90
6270;DHT22;3168;51.684;6.954;2023-11-19T02:31:26;12.30;99.90
6270;DHT22;3168;51.684;6.954;2023-11-19T02:33:51;12.30;99.90
6270;DHT22;3168;51.684;6.954;2023-11-19T02:36:17;12.30;99.90
6270;DHT22;3168;51.684;6.954;2023-11-19T02:38:43;12.30;99.90
6270;DHT22;3168;51.684;6.954;2023-11-19T02:41:09;12.30;99.90
6270;DHT22;3168;51.684;6.954;2023-11-19T02:43:36;12.30;99.90
6270;DHT22;3168;51.684;6.954;2023-11-19T02:46:01;12.30;99.90
6270;DHT22;3168;51.684;6.954;2023-11-19T02:48:27;12.20;99.90
6270;DHT22;3168;51.684;6.954;2023-11-19T02:50:53;12.20;99.90
6270;DHT22;3168;51.684;6.954;2023-11-19T02:53:19;12.20;99.90
6270;DHT22;3168;51.684;6.954;2023-11-19T02:55:45;12.20;99.90
6270;DHT22;3168;51.684;6.954;2023-11-19T02:58:11;12.20;99.90
6270;DHT22;3168;51.684;6.954;2023-11-19T03:00:39;12.20;99.90
6270;DHT22;3168;51.684;6.954;2023-11-19T03:03:03;12.10;99.90
6270;DHT22;3168;51.684;6.954;2023-11-19T03:05:31;12.10;99.90
6270;DHT22;3168;51.684;6.954;2023-11-19T03:07:57;12.20;99.90
6270;DHT22;3168;51.684;6.954;2023-11-19T03:10:23;12.20;99.90
6270;DHT22;3168;51.684;6.954;2023-11-19T03:12:55;12.30;99.90
6270;DHT22;3168;51.684;6.954;2023-11-19T03:15:21;12.20;92.30
6270;DHT22;3168;51.684;6.954;2023-11-19T03:17:47;12.20;81.50
6270;DHT22;3168;51.684;6.954;2023-11-19T03:20:13;12.20;77.10
6270;DHT22;3168;51.684;6.954;2023-11-19T03:22:41;12.30;57.70
6270;DHT22;3168;51.684;6.954;2023-11-19T03:25:07;12.30;45.20
6270;DHT22;3168;51.684;6.954;2023-11-19T03:27:32;12.30;23.50
6270;DHT22;3168;51.684;6.954;2023-11-19T03:29:58;12.30;1.40
6270;DHT22;3168;51.684;6.954;2023-11-19T03:32:24;12.40;1.00
6270;DHT22;3168;51.684;6.954;2023-11-19T03:34:51;12.30;1.00
6270;DHT22;3168;51.684;6.954;2023-11-19T03:37:16;12.30;1.00
6270;DHT22;3168;51.684;6.954;2023-11-19T03:39:42;12.40;1.00
6270;DHT22;3168;51.684;6.954;2023-11-19T03:42:14;12.40;1.00
6270;DHT22;3168;51.684;6.954;2023-11-19T03:44:41;12.30;1.00
6270;DHT22;3168;51.684;6.954;2023-11-19T03:47:06;12.40;1.00
6270;DHT22;3168;51.684;6.954;2023-11-19T03:49:32;12.40;1.00
6270;DHT22;3168;51.684;6.954;2023-11-19T03:51:59;12.40;1.00
6270;DHT22;3168;51.684;6.954;2023-11-19T03:54:25;12.40;1.00
6270;DHT22;3168;51.684;6.954;2023-11-19T03:56:50;12.40;1.00
6270;DHT22;3168;51.684;6.954;2023-11-19T03:59:16;12.50;1.00
6270;DHT22;3168;51.684;6.954;2023-11-19T04:01:42;12.50;1.00
6270;DHT22;3168;51.684;6.954;2023-11-19T04:04:08;12.40;1.00
6270;DHT22;3168;51.684;6.954;2023-11-19T04:06:34;12.50;1.00
6270;DHT22;3168;51.684;6.954;2023-11-19T04:08:59;12.50;1.00
6270;DHT22;3168;51.684;6.954;2023-11-19T04:11:32;12.50;1.00
6270;DHT22;3168;51.684;6.954;2023-11-19T04:13:58;12.40;1.00
6270;DHT22;3168;51.684;6.954;2023-11-19T04:16:26;12.40;1.00
6270;DHT22;3168;51.684;6.954;2023-11-19T04:18:51;12.40;1.00
6270;DHT22;3168;51.684;6.954;2023-11-19T04:21:17;12.30;1.00
6270;DHT22;3168;51.684;6.954;2023-11-19T04:23:43;12.30;1.00
6270;DHT22;3168;51.684;6.954;2023-11-19T04:26:09;12.30;1.00
6270;DHT22;3168;51.684;6.954;2023-11-19T04:28:35;12.30;1.00
6270;DHT22;3168;51.684;6.954;2023-11-19T04:31:00;12.30;1.00
6270;DHT22;3168;51.684;6.954;2023-11-19T04:33:26;12.20;1.00
6270;DHT22;3168;51.684;6.954;2023-11-19T04:35:52;12.10;1.00
6270;DHT22;3168;51.684;6.954;2023-11-19T04:38:18;12.00;1.00
6270;DHT22;3168;51.684;6.954;2023-11-19T04:40:44;12.00;1.00
6270;DHT22;3168;51.684;6.954;2023-11-19T04:43:10;12.00;1.00
6270;DHT22;3168;51.684;6.954;2023-11-19T04:45:36;12.00;1.00
6270;DHT22;3168;51.684;6.954;2023-11-19T04:48:01;11.90;1.00
6270;DHT22;3168;51.684;6.954;2023-11-19T04:50:27;11.90;1.00
6270;DHT22;3168;51.684;6.954;2023-11-19T04:52:53;11.80;1.00
6270;DHT22;3168;51.684;6.954;2023-11-19T04:55:19;11.70;1.00
6270;DHT22;3168;51.684;6.954;2023-11-19T04:57:45;11.70;1.00
6270;DHT22;3168;51.684;6.954;2023-11-19T05:00:12;11.70;1.00
6270;DHT22;3168;51.684;6.954;2023-11-19T05:02:38;11.70;1.00
6270;DHT22;3168;51.684;6.954;2023-11-19T05:05:04;11.70;1.00
6270;DHT22;3168;51.684;6.954;2023-11-19T05:07:30;11.60;1.00
6270;DHT22;3168;51.684;6.954;2023-11-19T05:09:56;11.50;1.00
6270;DHT22;3168;51.684;6.954;2023-11-19T05:12:22;11.60;1.00
6270;DHT22;3168;51.684;6.954;2023-11-19T05:14:47;11.50;1.00
6270;DHT22;3168;51.684;6.954;2023-11-19T05:17:14;11.50;1.00
6270;DHT22;3168;51.684;6.954;2023-11-19T05:19:40;11.50;1.00
6270;DHT22;3168;51.684;6.954;2023-11-19T05:22:06;11.50;1.00
6270;DHT22;3168;51.684;6.954;2023-11-19T05:24:32;11.40;1.00
6270;DHT22;3168;51.684;6.954;2023-11-19T05:26:57;11.40;1.00
6270;DHT22;3168;51.684;6.954;2023-11-19T05:29:23;11.50;1.00
6270;DHT22;3168;51.684;6.954;2023-11-19T05:31:49;11.60;1.00
6270;DHT22;3168;51.684;6.954;2023-11-19T05:34:15;11.50;1.00
6270;DHT22;3168;51.684;6.954;2023-11-19T05:36:41;11.50;1.00
6270;DHT22;3168;51.684;6.954;2023-11-19T05:39:07;11.60;1.00
6270;DHT22;3168;51.684;6.954;2023-11-19T05:41:33;11.50;1.00
6270;DHT22;3168;51.684;6.954;2023-11-19T05:43:58;11.60;1.00
6270;DHT22;3168;51.684;6.954;2023-11-19T05:46:24;11.60;1.00
6270;DHT22;3168;51.684;6.954;2023-11-19T05:48:51;11.60;1.00
6270;DHT22;3168;51.684;6.954;2023-11-19T05:51:17;11.60;1.00
6270;DHT22;3168;51.684;6.954;2023-11-19T05:53:42;11.50;1.00
6270;DHT22;3168;51.684;6.954;2023-11-19T05:56:08;11.60;1.00
6270;DHT22;3168;51.684;6.954;2023-11-19T05:58:34;11.50;1.00
6270;DHT22;3168;51.684;6.954;2023-11-19T06:01:01;11.50;1.00
6270;DHT22;3168;51.684;6.954;2023-11-19T06:03:27;11.50;1.00
6270;DHT22;3168;51.684;6.954;2023-11-19T06:05:52;11.50;1.00
6270;DHT22;3168;51.684;6.954;2023-11-19T06:08:18;11.50;1.00
6270;DHT22;3168;51.684;6.954;2023-11-19T06:10:44;11.60;1.00
6270;DHT22;3168;51.684;6.954;2023-11-19T06:13:13;11.60;1.00
6270;DHT22;3168;51.684;6.954;2023-11-19T06:15:38;11.50;1.00
6270;DHT22;3168;51.684;6.954;2023-11-19T06:18:04;11.50;1.00
6270;DHT22;3168;51.684;6.954;2023-11-19T06:23:25;11.60;1.00
6270;DHT22;3168;51.684;6.954;2023-11-19T06:25:51;11.50;1.00
6270;DHT22;3168;51.684;6.954;2023-11-19T06:28:17;11.60;1.00
6270;DHT22;3168;51.684;6.954;2023-11-19T06:30:43;11.60;1.00
6270;DHT22;3168;51.684;6.954;2023-11-19T06:33:09;11.60;1.00
6270;DHT22;3168;51.684;6.954;2023-11-19T06:35:35;11.70;1.00
6270;DHT22;3168;51.684;6.954;2023-11-19T06:38:02;11.70;1.00
6270;DHT22;3168;51.684;6.954;2023-11-19T06:40:27;11.70;1.00
6270;DHT22;3168;51.684;6.954;2023-11-19T06:42:53;11.60;1.00
6270;DHT22;3168;51.684;6.954;2023-11-19T06:45:19;11.60;1.00
6270;DHT22;3168;51.684;6.954;2023-11-19T06:47:45;11.60;1.00
6270;DHT22;3168;51.684;6.954;2023-11-19T06:50:11;11.70;1.00
6270;DHT22;3168;51.684;6.954;2023-11-19T06:52:37;11.70;1.00
6270;DHT22;3168;51.684;6.954;2023-11-19T06:55:03;11.70;1.00
6270;DHT22;3168;51.684;6.954;2023-11-19T06:57:29;11.70;1.00
6270;DHT22;3168;51.684;6.954;2023-11-19T06:59:55;11.70;1.00
6270;DHT22;3168;51.684;6.954;2023-11-19T07:02:21;11.70;1.00
6270;DHT22;3168;51.684;6.954;2023-11-19T07:04:47;11.70;1.00
6270;DHT22;3168;51.684;6.954;2023-11-19T07:07:12;11.60;1.00
6270;DHT22;3168;51.684;6.954;2023-11-19T07:09:38;11.60;1.00
6270;DHT22;3168;51.684;6.954;2023-11-19T07:12:05;11.50;1.00
6270;DHT22;3168;51.684;6.954;2023-11-19T07:14:31;11.50;1.00
6270;DHT22;3168;51.684;6.954;2023-11-19T07:16:57;11.50;1.00
6270;DHT22;3168;51.684;6.954;2023-11-19T07:19:23;11.40;1.00
6270;DHT22;3168;51.684;6.954;2023-11-19T07:21:49;11.40;1.00
6270;DHT22;3168;51.684;6.954;2023-11-19T07:24:14;11.30;1.00
6270;DHT22;3168;51.684;6.954;2023-11-19T07:26:42;11.20;1.00
6270;DHT22;3168;51.684;6.954;2023-11-19T07:29:06;11.30;1.00
6270;DHT22;3168;51.684;6.954;2023-11-19T07:31:32;11.30;1.00
6270;DHT22;3168;51.684;6.954;2023-11-19T07:33:58;11.30;1.00
6270;DHT22;3168;51.684;6.954;2023-11-19T07:36:25;11.30;1.00
6270;DHT22;3168;51.684;6.954;2023-11-19T07:38:51;11.20;1.00
6270;DHT22;3168;51.684;6.954;2023-11-19T07:41:17;11.30;1.00
6270;DHT22;3168;51.684;6.954;2023-11-19T07:43:43;11.20;1.00
6270;DHT22;3168;51.684;6.954;2023-11-19T07:46:11;11.30;1.00
6270;DHT22;3168;51.684;6.954;2023-11-19T07:48:36;11.30;1.00
6270;DHT22;3168;51.684;6.954;2023-11-19T07:51:03;11.30;1.00
6270;DHT22;3168;51.684;6.954;2023-11-19T07:53:28;11.30;1.00
6270;DHT22;3168;51.684;6.954;2023-11-19T07:55:54;11.30;1.00
6270;DHT22;3168;51.684;6.954;2023-11-19T07:58:20;11.50;1.00
6270;DHT22;3168;51.684;6.954;2023-11-19T08:00:46;11.50;1.00
6270;DHT22;3168;51.684;6.954;2023-11-19T08:03:12;11.50;1.00
6270;DHT22;3168;51.684;6.954;2023-11-19T08:05:38;11.50;1.00
6270;DHT22;3168;51.684;6.954;2023-11-19T08:08:05;11.50;1.00
6270;DHT22;3168;51.684;6.954;2023-11-19T08:10:31;11.50;1.00
6270;DHT22;3168;51.684;6.954;2023-11-19T08:12:57;11.50;1.00
6270;DHT22;3168;51.684;6.954;2023-11-19T08:15:23;11.60;1.00
6270;DHT22;3168;51.684;6.954;2023-11-19T08:17:49;11.70;1.00
6270;DHT22;3168;51.684;6.954;2023-11-19T08:20:15;11.70;1.00
6270;DHT22;3168;51.684;6.954;2023-11-19T08:22:41;11.80;1.00
6270;DHT22;3168;51.684;6.954;2023-11-19T08:25:08;11.70;1.00
6270;DHT22;3168;51.684;6.954;2023-11-19T08:27:34;11.80;1.00
6270;DHT22;3168;51.684;6.954;2023-11-19T08:29:59;11.80;1.00
6270;DHT22;3168;51.684;6.954;2023-11-19T08:32:26;11.80;1.00
6270;DHT22;3168;51.684;6.954;2023-11-19T08:34:51;11.80;1.00
6270;DHT22;3168;51.684;6.954;2023-11-19T08:37:17;11.80;1.00
6270;DHT22;3168;51.684;6.954;2023-11-19T08:39:44;11.90;1.00
6270;DHT22;3168;51.684;6.954;2023-11-19T08:42:10;11.80;1.00
6270;DHT22;3168;51.684;6.954;2023-11-19T08:44:35;11.80;1.00
6270;DHT22;3168;51.684;6.954;2023-11-19T08:47:01;11.90;1.00
6270;DHT22;3168;51.684;6.954;2023-11-19T08:49:27;11.80;1.00
6270;DHT22;3168;51.684;6.954;2023-11-19T08:51:53;11.80;1.00
6270;DHT22;3168;51.684;6.954;2023-11-19T08:54:19;11.80;1.00
6270;DHT22;3168;51.684;6.954;2023-11-19T08:56:45;11.80;1.00
6270;DHT22;3168;51.684;6.954;2023-11-19T08:59:11;11.90;1.00
6270;DHT22;3168;51.684;6.954;2023-11-19T09:01:37;11.90;1.00
6270;DHT22;3168;51.684;6.954;2023-11-19T09:04:03;12.00;1.00
6270;DHT22;3168;51.684;6.954;2023-11-19T09:06:29;12.00;1.00
6270;DHT22;3168;51.684;6.954;2023-11-19T09:08:55;12.10;1.00
6270;DHT22;3168;51.684;6.954;2023-11-19T09:11:21;12.20;1.00
6270;DHT22;3168;51.684;6.954;2023-11-19T09:13:47;12.20;1.00
6270;DHT22;3168;51.684;6.954;2023-11-19T09:16:13;12.20;1.00
6270;DHT22;3168;51.684;6.954;2023-11-19T09:18:39;12.20;1.00
6270;DHT22;3168;51.684;6.954;2023-11-19T09:21:05;12.30;99.90
6270;DHT22;3168;51.684;6.954;2023-11-19T09:23:31;12.30;1.00
6270;DHT22;3168;51.684;6.954;2023-11-19T09:25:57;12.20;1.00
6270;DHT22;3168;51.684;6.954;2023-11-19T09:28:22;12.30;99.90
6270;DHT22;3168;51.684;6.954;2023-11-19T09:30:48;12.30;99.90
6270;DHT22;3168;51.684;6.954;2023-11-19T09:33:14;12.40;99.90
6270;DHT22;3168;51.684;6.954;2023-11-19T09:35:40;12.40;99.90
6270;DHT22;3168;51.684;6.954;2023-11-19T09:38:07;12.40;99.90
6270;DHT22;3168;51.684;6.954;2023-11-19T09:40:33;12.40;99.90
6270;DHT22;3168;51.684;6.954;2023-11-19T09:42:59;12.50;99.90
6270;DHT22;3168;51.684;6.954;2023-11-19T09:45:25;12.40;99.90
6270;DHT22;3168;51.684;6.954;2023-11-19T09:47:50;12.50;99.90
6270;DHT22;3168;51.684;6.954;2023-11-19T09:50:17;12.40;99.90
6270;DHT22;3168;51.684;6.954;2023-11-19T09:52:43;12.40;99.90
6270;DHT22;3168;51.684;6.954;2023-11-19T09:55:08;12.40;99.90
6270;DHT22;3168;51.684;6.954;2023-11-19T09:57:34;12.40;99.90
6270;DHT22;3168;51.684;6.954;2023-11-19T10:00:00;12.40;99.90
6270;DHT22;3168;51.684;6.954;2023-11-19T10:02:26;12.40;99.90
6270;DHT22;3168;51.684;6.954;2023-11-19T10:04:52;12.40;99.90
6270;DHT22;3168;51.684;6.954;2023-11-19T10:07:18;12.40;99.90
6270;DHT22;3168;51.684;6.954;2023-11-19T10:09:44;12.40;99.90
6270;DHT22;3168;51.684;6.954;2023-11-19T10:12:10;12.40;99.90
6270;DHT22;3168;51.684;6.954;2023-11-19T10:14:36;12.40;99.90
6270;DHT22;3168;51.684;6.954;2023-11-19T10:17:02;12.40;99.90
6270;DHT22;3168;51.684;6.954;2023-11-19T10:19:28;12.30;99.90
6270;DHT22;3168;51.684;6.954;2023-11-19T10:21:53;12.20;1.00
6270;DHT22;3168;51.684;6.954;2023-11-19T10:24:30;12.20;1.00
6270;DHT22;3168;51.684;6.954;2023-11-19T10:26:45;12.10;1.00
6270;DHT22;3168;51.684;6.954;2023-11-19T10:29:12;12.00;1.00
6270;DHT22;3168;51.684;6.954;2023-11-19T10:31:38;12.10;1.00
6270;DHT22;3168;51.684;6.954;2023-11-19T10:34:06;12.10;1.00
6270;DHT22;3168;51.684;6.954;2023-11-19T10:36:38;12.10;1.00
6270;DHT22;3168;51.684;6.954;2023-11-19T10:39:03;12.30;1.00
6270;DHT22;3168;51.684;6.954;2023-11-19T10:41:29;12.20;1.00
6270;DHT22;3168;51.684;6.954;2023-11-19T10:43:56;12.10;1.00
6270;DHT22;3168;51.684;6.954;2023-11-19T10:46:22;12.10;1.00
6270;DHT22;3168;51.684;6.954;2023-11-19T10:48:48;12.20;1.00
6270;DHT22;3168;51.684;6.954;2023-11-19T10:51:13;12.40;1.00
6270;DHT22;3168;51.684;6.954;2023-11-19T10:53:39;12.60;99.90
6270;DHT22;3168;51.684;6.954;2023-11-19T10:56:06;12.70;99.90
6270;DHT22;3168;51.684;6.954;2023-11-19T10:58:32;12.70;99.90
6270;DHT22;3168;51.684;6.954;2023-11-19T11:00:59;12.70;99.90
6270;DHT22;3168;51.684;6.954;2023-11-19T11:03:25;12.70;99.90
6270;DHT22;3168;51.684;6.954;2023-11-19T11:05:51;12.70;99.90
6270;DHT22;3168;51.684;6.954;2023-11-19T11:08:17;12.70;99.90
6270;DHT22;3168;51.684;6.954;2023-11-19T11:10:43;12.80;99.90
6270;DHT22;3168;51.684;6.954;2023-11-19T11:13:08;12.80;99.90
6270;DHT22;3168;51.684;6.954;2023-11-19T11:15:34;12.80;99.90
6270;DHT22;3168;51.684;6.954;2023-11-19T11:18:01;12.70;99.90
6270;DHT22;3168;51.684;6.954;2023-11-19T11:20:29;12.70;99.90
6270;DHT22;3168;51.684;6.954;2023-11-19T11:28:43;12.80;99.90
6270;DHT22;3168;51.684;6.954;2023-11-19T11:33:59;12.80;99.90
6270;DHT22;3168;51.684;6.954;2023-11-19T11:36:21;12.80;99.90
6270;DHT22;3168;51.684;6.954;2023-11-19T11:38:47;12.70;99.90
6270;DHT22;3168;51.684;6.954;2023-11-19T11:41:17;12.80;99.90
6270;DHT22;3168;51.684;6.954;2023-11-19T11:43:46;12.80;99.90
6270;DHT22;3168;51.684;6.954;2023-11-19T11:48:50;12.80;99.90
6270;DHT22;3168;51.684;6.954;2023-11-19T11:51:16;12.90;99.90
6270;DHT22;3168;51.684;6.954;2023-11-19T11:53:42;12.90;99.90
6270;DHT22;3168;51.684;6.954;2023-11-19T11:56:08;12.80;99.90
6270;DHT22;3168;51.684;6.954;2023-11-19T11:58:35;13.00;99.90
6270;DHT22;3168;51.684;6.954;2023-11-19T12:01:01;13.20;99.90
6270;DHT22;3168;51.684;6.954;2023-11-19T12:03:27;13.20;99.90
6270;DHT22;3168;51.684;6.954;2023-11-19T12:05:52;13.20;99.90
6270;DHT22;3168;51.684;6.954;2023-11-19T12:08:19;13.30;99.90
6270;DHT22;3168;51.684;6.954;2023-11-19T12:10:46;13.20;99.90
6270;DHT22;3168;51.684;6.954;2023-11-19T12:13:11;13.30;99.90
6270;DHT22;3168;51.684;6.954;2023-11-19T12:18:14;13.40;99.90
6270;DHT22;3168;51.684;6.954;2023-11-19T12:20:40;13.40;99.90
6270;DHT22;3168;51.684;6.954;2023-11-19T12:23:06;13.40;99.90
6270;DHT22;3168;51.684;6.954;2023-11-19T12:25:33;13.40;99.90
6270;DHT22;3168;51.684;6.954;2023-11-19T12:27:58;13.40;99.90
6270;DHT22;3168;51.684;6.954;2023-11-19T12:30:24;13.40;99.90
6270;DHT22;3168;51.684;6.954;2023-11-19T12:32:50;13.40;99.90
6270;DHT22;3168;51.684;6.954;2023-11-19T12:35:16;13.40;99.90
6270;DHT22;3168;51.684;6.954;2023-11-19T12:37:42;13.30;99.90
6270;DHT22;3168;51.684;6.954;2023-11-19T12:40:16;13.30;99.90
6270;DHT22;3168;51.684;6.954;2023-11-19T12:42:41;13.30;99.90
6270;DHT22;3168;51.684;6.954;2023-11-19T12:45:07;13.30;99.90
6270;DHT22;3168;51.684;6.954;2023-11-19T12:47:34;13.20;99.90
6270;DHT22;3168;51.684;6.954;2023-11-19T12:50:00;13.10;99.90
6270;DHT22;3168;51.684;6.954;2023-11-19T12:52:26;13.10;99.90
6270;DHT22;3168;51.684;6.954;2023-11-19T12:54:52;13.00;99.90
6270;DHT22;3168;51.684;6.954;2023-11-19T12:57:18;12.80;99.90
6270;DHT22;3168;51.684;6.954;2023-11-19T13:02:19;12.60;99.90
6270;DHT22;3168;51.684;6.954;2023-11-19T13:04:45;12.50;99.90
6270;DHT22;3168;51.684;6.954;2023-11-19T13:07:11;12.60;99.90
6270;DHT22;3168;51.684;6.954;2023-11-19T13:09:36;12.60;99.90
6270;DHT22;3168;51.684;6.954;2023-11-19T13:12:12;12.50;99.90
6270;DHT22;3168;51.684;6.954;2023-11-19T13:14:36;12.40;99.90
6270;DHT22;3168;51.684;6.954;2023-11-19T13:17:01;12.40;99.90
6270;DHT22;3168;51.684;6.954;2023-11-19T13:19:27;12.30;99.90
6270;DHT22;3168;51.684;6.954;2023-11-19T13:21:52;12.40;99.90
6270;DHT22;3168;51.684;6.954;2023-11-19T13:24:18;12.40;99.90
6270;DHT22;3168;51.684;6.954;2023-11-19T13:26:44;12.40;99.90
6270;DHT22;3168;51.684;6.954;2023-11-19T13:29:10;12.50;99.90
6270;DHT22;3168;51.684;6.954;2023-11-19T13:31:36;12.40;99.90
6270;DHT22;3168;51.684;6.954;2023-11-19T13:34:02;12.60;99.90
6270;DHT22;3168;51.684;6.954;2023-11-19T13:36:28;12.60;99.90
6270;DHT22;3168;51.684;6.954;2023-11-19T13:38:54;12.60;99.90
6270;DHT22;3168;51.684;6.954;2023-11-19T13:41:20;12.50;99.90
6270;DHT22;3168;51.684;6.954;2023-11-19T13:43:47;12.60;99.90
6270;DHT22;3168;51.684;6.954;2023-11-19T13:46:13;12.60;99.90
6270;DHT22;3168;51.684;6.954;2023-11-19T13:48:39;12.60;99.90
6270;DHT22;3168;51.684;6.954;2023-11-19T13:51:05;12.70;99.90
6270;DHT22;3168;51.684;6.954;2023-11-19T13:53:31;12.80;99.90
6270;DHT22;3168;51.684;6.954;2023-11-19T13:55:57;12.80;99.90
6270;DHT22;3168;51.684;6.954;2023-11-19T13:58:23;12.80;99.90
6270;DHT22;3168;51.684;6.954;2023-11-19T14:00:49;12.80;99.90
6270;DHT22;3168;51.684;6.954;2023-11-19T14:03:15;12.80;99.90
6270;DHT22;3168;51.684;6.954;2023-11-19T14:05:41;12.80;99.90
6270;DHT22;3168;51.684;6.954;2023-11-19T14:08:06;12.80;99.90
6270;DHT22;3168;51.684;6.954;2023-11-19T14:10:38;12.80;99.90
6270;DHT22;3168;51.684;6.954;2023-11-19T14:13:03;12.80;99.90
6270;DHT22;3168;51.684;6.954;2023-11-19T14:15:29;12.80;99.90
6270;DHT22;3168;51.684;6.954;2023-11-19T14:17:55;12.80;99.90
6270;DHT22;3168;51.684;6.954;2023-11-19T14:20:21;12.70;99.90
6270;DHT22;3168;51.684;6.954;2023-11-19T14:22:46;12.70;99.90
6270;DHT22;3168;51.684;6.954;2023-11-19T14:25:12;12.70;99.90
6270;DHT22;3168;51.684;6.954;2023-11-19T14:27:39;12.70;99.90
6270;DHT22;3168;51.684;6.954;2023-11-19T14:30:06;12.60;99.90
6270;DHT22;3168;51.684;6.954;2023-11-19T14:32:31;12.60;99.90
6270;DHT22;3168;51.684;6.954;2023-11-19T14:34:57;12.60;99.90
6270;DHT22;3168;51.684;6.954;2023-11-19T14:37:23;12.40;1.00
6270;DHT22;3168;51.684;6.954;2023-11-19T14:39:49;12.30;1.00
6270;DHT22;3168;51.684;6.954;2023-11-19T14:42:15;12.20;1.00
6270;DHT22;3168;51.684;6.954;2023-11-19T14:44:41;12.20;1.00
6270;DHT22;3168;51.684;6.954;2023-11-19T14:47:07;12.10;1.00
6270;DHT22;3168;51.684;6.954;2023-11-19T14:49:34;11.90;1.00
6270;DHT22;3168;51.684;6.954;2023-11-19T14:51:59;11.90;1.00
6270;DHT22;3168;51.684;6.954;2023-11-19T14:54:25;11.80;1.00
6270;DHT22;3168;51.684;6.954;2023-11-19T14:56:51;11.90;1.00
6270;DHT22;3168;51.684;6.954;2023-11-19T14:59:17;11.90;1.00
6270;DHT22;3168;51.684;6.954;2023-11-19T15:01:44;11.90;1.00
6270;DHT22;3168;51.684;6.954;2023-11-19T15:04:08;11.90;1.00
6270;DHT22;3168;51.684;6.954;2023-11-19T15:06:34;11.80;1.00
6270;DHT22;3168;51.684;6.954;2023-11-19T15:09:00;11.80;1.00
6270;DHT22;3168;51.684;6.954;2023-11-19T15:11:26;11.80;1.00
6270;DHT22;3168;51.684;6.954;2023-11-19T15:13:52;11.80;1.00
6270;DHT22;3168;51.684;6.954;2023-11-19T15:16:18;11.70;1.00
6270;DHT22;3168;51.684;6.954;2023-11-19T15:18:43;11.80;1.00
6270;DHT22;3168;51.684;6.954;2023-11-19T15:21:09;11.80;1.00
6270;DHT22;3168;51.684;6.954;2023-11-19T15:23:35;11.80;1.00
6270;DHT22;3168;51.684;6.954;2023-11-19T15:26:01;11.80;1.00
6270;DHT22;3168;51.684;6.954;2023-11-19T15:28:27;11.80;1.00
6270;DHT22;3168;51.684;6.954;2023-11-19T15:30:52;11.70;1.00
6270;DHT22;3168;51.684;6.954;2023-11-19T15:33:18;11.70;1.00
6270;DHT22;3168;51.684;6.954;2023-11-19T15:35:44;11.70;1.00
6270;DHT22;3168;51.684;6.954;2023-11-19T15:38:10;11.70;1.00
6270;DHT22;3168;51.684;6.954;2023-11-19T15:40:36;11.70;1.00
6270;DHT22;3168;51.684;6.954;2023-11-19T15:43:02;11.60;1.00
6270;DHT22;3168;51.684;6.954;2023-11-19T15:45:28;11.60;1.00
6270;DHT22;3168;51.684;6.954;2023-11-19T15:47:54;11.60;1.00
6270;DHT22;3168;51.684;6.954;2023-11-19T15:50:19;11.60;1.00
6270;DHT22;3168;51.684;6.954;2023-11-19T15:52:45;11.50;1.00
6270;DHT22;3168;51.684;6.954;2023-11-19T15:55:11;11.50;1.00
6270;DHT22;3168;51.684;6.954;2023-11-19T15:57:38;11.50;1.00
6270;DHT22;3168;51.684;6.954;2023-11-19T16:00:04;11.40;1.00
6270;DHT22;3168;51.684;6.954;2023-11-19T16:02:31;11.40;1.00
6270;DHT22;3168;51.684;6.954;2023-11-19T16:04:57;11.40;1.00
6270;DHT22;3168;51.684;6.954;2023-11-19T16:07:23;11.50;1.00
6270;DHT22;3168;51.684;6.954;2023-11-19T16:09:49;11.60;1.00
6270;DHT22;3168;51.684;6.954;2023-11-19T16:12:15;11.60;1.00
6270;DHT22;3168;51.684;6.954;2023-11-19T16:14:40;11.60;1.00
6270;DHT22;3168;51.684;6.954;2023-11-19T16:17:06;11.60;1.00
6270;DHT22;3168;51.684;6.954;2023-11-19T16:19:32;11.50;1.00
6270;DHT22;3168;51.684;6.954;2023-11-19T16:22:05;11.50;1.00
6270;DHT22;3168;51.684;6.954;2023-11-19T16:24:32;11.50;1.00